Time;durP1;ratioP1;P1;durP2;ratioP2;P2;SDS_P1;SDS_P2;PMS_P1;PMS_P2;Temp;Humidity;BMP_temperature;BMP_pressure;BME280_temperature;BME280_humidity;BME280_pressure;Samples;Min_cycle;Max_cycle;Signal;HPM_P1;HPM_P2
2023/09/08 00:02:16;;;;;;;;;;;;;;;20.64;91.50;100516.72;5098467;28;20086;-29
2023/09/08 00:04:41;;;;;;;17.15;10.57;;;;;;;20.50;91.90;100502.88;5106491;28;19953;-30
2023/09/08 00:07:07;;;;;;;14.48;8.93;;;;;;;20.55;92.30;100504.75;5106157;28;21071;-32
2023/09/08 00:09:32;;;;;;;14.05;8.73;;;;;;;20.43;92.71;100503.19;5106392;28;20469;-29
2023/09/08 00:11:58;;;;;;;11.65;7.97;;;;;;;20.38;92.85;100503.16;5105657;28;20036;-28
2023/09/08 00:14:24;;;;;;;12.98;7.63;;;;;;;20.43;93.94;100491.50;5106684;28;20046;-30
2023/09/08 00:17:19;;;;;;;12.43;7.93;;;;;;;20.48;94.10;100505.06;5105885;28;20024;-32
2023/09/08 00:19:44;;;;;;;15.73;8.82;;;;;;;20.25;94.63;100499.13;5087597;28;20036;-32
2023/09/08 00:22:09;;;;;;;14.25;8.27;;;;;;;20.42;94.12;100506.97;5105884;28;20420;-32
2023/09/08 00:24:35;;;;;;;13.88;8.45;;;;;;;20.48;93.81;100500.44;5105927;28;20035;-32
2023/09/08 00:27:03;;;;;;;14.35;8.48;;;;;;;20.30;94.62;100492.88;5105896;28;20028;-31
2023/09/08 00:29:28;;;;;;;14.85;8.10;;;;;;;20.50;94.01;100497.47;5105705;28;20023;-32
2023/09/08 00:31:54;;;;;;;13.63;8.18;;;;;;;20.51;93.80;100495.56;5105845;27;20038;-31
2023/09/08 00:34:40;;;;;;;13.43;8.10;;;;;;;20.55;92.17;100493.94;5106217;28;20032;-31
2023/09/08 00:37:41;;;;;;;14.55;8.13;;;;;;;20.52;92.75;100500.72;5105769;28;20035;-32
2023/09/08 00:40:10;;;;;;;15.43;7.57;;;;;;;20.52;92.75;100499.91;5042726;28;20043;-32
2023/09/08 00:42:36;;;;;;;14.85;7.55;;;;;;;20.39;93.70;100502.09;5094073;28;20127;-31
2023/09/08 00:45:02;;;;;;;12.57;7.50;;;;;;;20.35;94.29;100502.91;5105591;28;20122;-29
2023/09/08 00:47:28;;;;;;;13.38;7.70;;;;;;;20.46;92.89;100497.19;5105302;28;20102;-32
2023/09/08 00:49:56;;;;;;;15.40;7.60;;;;;;;20.52;92.76;100499.91;5105826;28;20132;-29
2023/09/08 00:52:32;;;;;;;11.90;7.60;;;;;;;20.33;92.83;100492.38;5105288;28;20043;-30
2023/09/08 00:54:58;;;;;;;10.68;7.05;;;;;;;20.43;92.90;100486.94;5105498;28;20126;-29
2023/09/08 00:57:26;;;;;;;14.10;7.10;;;;;;;20.35;92.13;100495.59;5105377;28;20024;-31
2023/09/08 00:59:52;;;;;;;;;;;;;;;20.52;93.00;100497.19;5106000;28;20026;-30
2023/09/08 01:02:17;;;;;;;9.55;6.45;;;;;;;20.57;90.71;100495.25;5105732;28;19915;-31
2023/09/08 01:04:44;;;;;;;11.13;6.57;;;;;;;20.27;91.93;100478.00;5105377;28;20031;-29
2023/09/08 01:07:10;;;;;;;10.50;6.97;;;;;;;20.28;89.25;100495.06;5105762;28;20100;-31
2023/09/08 01:09:37;;;;;;;11.68;6.97;;;;;;;20.20;90.98;100488.28;5105327;28;20118;-30
2023/09/08 01:12:05;;;;;;;9.98;6.78;;;;;;;20.27;89.81;100485.31;5105572;28;20036;-30
2023/09/08 01:14:31;;;;;;;12.15;7.20;;;;;;;19.86;90.31;100477.25;5105751;28;20172;-30
2023/09/08 01:17:25;;;;;;;10.90;7.15;;;;;;;19.93;91.08;100480.47;5105409;28;20879;-29
2023/09/08 01:19:54;;;;;;;10.98;6.85;;;;;;;19.99;91.51;100484.81;5105308;28;20518;-30
2023/09/08 01:22:43;;;;;;;10.90;6.97;;;;;;;19.66;92.62;100478.81;5105289;28;20030;-31
2023/09/08 01:25:11;;;;;;;8.82;6.30;;;;;;;19.60;93.59;100474.47;5105398;28;20023;-29
2023/09/08 01:27:38;;;;;;;10.40;6.93;;;;;;;19.52;93.73;100466.88;5105110;28;20036;-32
2023/09/08 01:30:06;;;;;;;12.27;6.53;;;;;;;19.63;93.40;100460.41;5105513;28;20024;-31
2023/09/08 01:32:33;;;;;;;11.32;7.07;;;;;;;19.58;93.32;100470.41;5105201;28;20477;-30
2023/09/08 01:35:01;;;;;;;13.38;7.35;;;;;;;19.64;93.62;100474.75;5105095;28;20043;-29
2023/09/08 01:37:27;;;;;;;12.05;7.50;;;;;;;19.49;94.53;100467.41;5105249;28;20506;-30
2023/09/08 01:39:52;;;;;;;15.48;7.95;;;;;;;19.40;91.59;100467.13;5105266;28;20622;-30
2023/09/08 01:42:17;;;;;;;13.57;7.32;;;;;;;19.32;92.48;100467.66;5108857;28;20024;-31
2023/09/08 01:44:43;;;;;;;12.35;7.78;;;;;;;19.34;92.62;100457.38;5108694;28;20027;-30
2023/09/08 01:47:11;;;;;;;11.55;6.70;;;;;;;19.53;93.47;100471.19;5109051;28;20024;-31
2023/09/08 01:49:44;;;;;;;10.23;7.00;;;;;;;19.44;93.52;100459.31;5108816;28;20035;-30
2023/09/08 01:52:09;;;;;;;14.40;8.18;;;;;;;19.26;92.59;100453.31;5108472;28;20161;-28
2023/09/08 01:54:37;;;;;;;11.60;7.60;;;;;;;19.25;91.88;100459.81;5109107;28;20106;-30
2023/09/08 01:57:03;;;;;;;14.35;7.00;;;;;;;19.23;92.09;100456.56;5109062;28;20055;-31
2023/09/08 01:59:28;;;;;;;11.98;7.25;;;;;;;19.40;92.16;100469.03;5108749;28;20023;-30
2023/09/08 02:01:53;;;;;;;13.15;7.40;;;;;;;19.19;94.68;100460.88;5109053;27;20034;-30
2023/09/08 02:04:28;;;;;;;11.68;7.03;;;;;;;19.43;93.29;100453.09;5108818;28;20016;-34
2023/09/08 02:06:53;;;;;;;14.20;7.82;;;;;;;19.63;91.60;100471.22;5108370;28;20072;-31
2023/09/08 02:09:33;;;;;;;16.52;8.50;;;;;;;19.24;93.26;100466.28;5108603;28;20028;-29
2023/09/08 02:11:59;;;;;;;19.38;9.65;;;;;;;19.39;94.68;100456.56;5108193;28;20488;-30
2023/09/08 02:14:53;;;;;;;17.23;9.48;;;;;;;19.43;96.21;100457.66;5108586;28;20077;-31
2023/09/08 02:17:19;;;;;;;16.38;9.43;;;;;;;19.43;95.51;100452.25;5102887;28;20051;-30
2023/09/08 02:20:05;;;;;;;15.05;8.85;;;;;;;19.31;96.28;100452.53;5108361;27;20015;-30
2023/09/08 02:22:57;;;;;;;22.17;10.18;;;;;;;19.05;95.58;100462.47;5108175;28;20142;-31
2023/09/08 02:25:23;;;;;;;17.83;9.48;;;;;;;18.77;97.22;100460.97;5105131;28;20039;-32
2023/09/08 02:27:49;;;;;;;16.17;9.50;;;;;;;18.93;99.07;100469.97;5108303;28;20024;-30
2023/09/08 02:30:15;;;;;;;15.65;10.02;;;;;;;19.01;98.07;100456.75;5108259;28;20036;-30
2023/09/08 02:32:52;;;;;;;17.42;9.55;;;;;;;19.01;98.63;100455.97;5108419;28;20047;-29
2023/09/08 02:35:18;;;;;;;14.82;9.98;;;;;;;18.94;99.03;100455.38;5108084;28;20047;-31
2023/09/08 02:37:43;;;;;;;12.45;8.82;;;;;;;18.75;100.00;100450.41;5108370;28;20383;-29
2023/09/08 02:40:09;;;;;;;11.73;9.00;;;;;;;18.93;100.00;100448.38;5108060;28;20027;-29
2023/09/08 02:42:59;;;;;;;13.43;8.80;;;;;;;19.00;100.00;100443.50;5108224;28;20035;-29
2023/09/08 02:45:25;;;;;;;12.40;8.23;;;;;;;19.15;98.94;100440.84;5108236;28;20030;-30
2023/09/08 02:47:59;;;;;;;14.05;8.80;;;;;;;19.09;98.81;100441.94;5107713;28;20024;-30
2023/09/08 02:50:27;;;;;;;12.27;9.07;;;;;;;18.95;100.00;100446.22;5107309;28;20024;-30
2023/09/08 02:53:01;;;;;;;15.20;9.52;;;;;;;19.06;99.78;100437.03;5107690;28;20054;-29
2023/09/08 02:55:30;;;;;;;12.93;9.02;;;;;;;19.00;100.00;100451.63;5107491;28;20046;-29
2023/09/08 02:58:05;;;;;;;11.93;8.70;;;;;;;19.07;99.49;100444.88;5107773;28;20054;-29
2023/09/08 03:00:30;;;;;;;13.35;8.80;;;;;;;18.94;99.19;100444.56;5107487;28;20031;-29
2023/09/08 03:03:14;;;;;;;18.25;9.57;;;;;;;18.81;98.58;100435.88;5107495;28;20035;-29
2023/09/08 03:06:05;;;;;;;12.77;9.68;;;;;;;18.89;97.66;100439.97;5107694;28;20051;-32
2023/09/08 03:08:31;;;;;;;12.85;9.20;;;;;;;18.82;99.40;100439.41;5098668;28;20479;-29
2023/09/08 03:10:58;;;;;;;12.35;9.50;;;;;;;18.60;100.00;100434.16;5107346;28;20024;-31
2023/09/08 03:13:23;;;;;;;15.32;10.20;;;;;;;18.75;100.00;100447.72;5107345;28;20078;-30
2023/09/08 03:15:49;;;;;;;13.80;10.05;;;;;;;18.74;100.00;100443.41;5107065;28;20500;-30
2023/09/08 03:18:46;;;;;;;13.32;10.13;;;;;;;18.91;99.24;100445.13;5107316;28;20035;-30
2023/09/08 03:21:14;;;;;;;13.45;10.77;;;;;;;18.82;99.24;100442.94;5107454;28;20104;-29
2023/09/08 03:23:48;;;;;;;11.73;9.80;;;;;;;18.83;100.00;100433.72;5107362;28;20042;-29
2023/09/08 03:26:15;;;;;;;12.23;10.27;;;;;;;18.65;100.00;100443.09;5107133;28;20032;-31
2023/09/08 03:29:15;;;;;;;15.05;9.95;;;;;;;18.91;100.00;100439.72;5107073;28;20022;-31
2023/09/08 03:31:34;;;;;;;16.83;9.82;;;;;;;18.86;100.00;100437.81;5103892;28;20039;-29
2023/09/08 03:34:20;;;;;;;18.70;11.30;;;;;;;18.90;100.00;100429.97;5106910;28;20023;-30
2023/09/08 03:37:18;;;;;;;18.38;11.50;;;;;;;19.02;99.79;100435.94;5106838;28;20055;-30
2023/09/08 03:39:46;;;;;;;16.27;11.05;;;;;;;19.12;100.00;100446.78;5090667;28;20036;-31
2023/09/08 03:42:11;;;;;;;26.65;15.43;;;;;;;18.95;100.00;100440.81;5107050;28;20088;-30
2023/09/08 03:44:49;;;;;;;22.75;12.70;;;;;;;19.05;100.00;100447.03;5106896;28;20055;-31
2023/09/08 03:47:14;;;;;;;22.35;12.63;;;;;;;18.96;100.00;100453.22;5106374;28;20566;-32
2023/09/08 03:49:52;;;;;;;15.60;9.27;;;;;;;18.86;100.00;100446.72;5107102;28;20024;-31
2023/09/08 03:52:20;;;;;;;13.75;8.90;;;;;;;19.09;100.00;100452.75;5106000;28;20051;-29
2023/09/08 03:54:46;;;;;;;;;;;;;;;18.93;97.59;100459.19;5106849;28;20105;-27
2023/09/08 03:57:11;;;;;;;11.63;7.63;;;;;;;18.96;99.34;100459.47;5106422;28;19916;-32
2023/09/08 03:59:37;;;;;;;12.70;8.05;;;;;;;19.00;99.01;100454.31;5106753;28;20031;-30
2023/09/08 04:02:02;;;;;;;13.90;9.90;;;;;;;19.11;98.58;100461.41;5106811;28;20027;-29
2023/09/08 04:04:28;;;;;;;14.45;9.10;;;;;;;19.00;98.98;100454.31;5105667;28;20032;-29
2023/09/08 04:06:53;;;;;;;14.85;10.10;;;;;;;18.89;100.00;100463.47;5106328;28;20032;-30
2023/09/08 04:09:18;;;;;;;13.25;9.45;;;;;;;18.91;100.00;100458.63;5105760;28;20046;-29
2023/09/08 04:11:54;;;;;;;16.35;9.85;;;;;;;18.85;100.00;100461.28;5106153;28;20024;-29
2023/09/08 04:14:21;;;;;;;12.77;9.38;;;;;;;18.94;100.00;100460.78;5106215;28;20027;-28
2023/09/08 04:17:15;;;;;;;13.82;9.68;;;;;;;19.11;100.00;100464.09;5106496;28;20226;-28
2023/09/08 04:19:40;;;;;;;13.00;9.25;;;;;;;19.24;100.00;100474.41;5100638;28;20039;-31
2023/09/08 04:22:32;;;;;;;14.15;9.60;;;;;;;19.34;100.00;100473.63;5106215;28;20040;-32
2023/09/08 04:24:58;;;;;;;16.13;9.73;;;;;;;19.22;100.00;100473.84;5103155;28;20071;-34
2023/09/08 04:27:24;;;;;;;17.45;9.38;;;;;;;19.48;100.00;100482.03;5106068;28;20027;-31
2023/09/08 04:29:49;;;;;;;14.13;8.82;;;;;;;19.53;99.01;100478.50;5106140;28;20539;-31
2023/09/08 04:32:15;;;;;;;14.15;8.90;;;;;;;19.60;97.94;100485.28;5105844;28;20023;-31
2023/09/08 04:34:42;;;;;;;12.57;9.10;;;;;;;19.48;99.13;100466.59;5106010;28;20029;-33
2023/09/08 04:37:08;;;;;;;16.52;9.57;;;;;;;19.49;98.80;100483.63;5105781;28;20089;-31
2023/09/08 04:39:35;;;;;;;15.00;9.40;;;;;;;19.38;99.51;100511.75;5105835;28;21237;-33
2023/09/08 04:42:00;;;;;;;14.18;8.93;;;;;;;19.50;98.64;100493.41;5105515;28;20138;-29
2023/09/08 04:44:26;;;;;;;14.60;10.10;;;;;;;19.43;98.77;100503.66;5105680;28;20123;-30
2023/09/08 04:46:52;;;;;;;14.20;8.35;;;;;;;19.48;99.37;100503.66;5105692;28;20035;-29
2023/09/08 04:49:18;;;;;;;14.68;9.18;;;;;;;19.63;97.75;100492.84;5105339;28;20424;-29
2023/09/08 04:51:53;;;;;;;14.30;9.65;;;;;;;19.67;97.68;100493.94;5105584;28;20484;-33
2023/09/08 04:57:04;;;;;;;15.02;8.65;;;;;;;19.98;97.11;100502.13;5097793;28;20054;-31
2023/09/08 04:59:41;;;;;;;11.90;9.00;;;;;;;20.12;96.50;100507.00;5103608;28;20040;-32
2023/09/08 05:02:07;;;;;;;15.30;8.77;;;;;;;20.06;96.25;100509.72;5105176;28;20036;-29
2023/09/08 05:04:32;;;;;;;14.20;8.52;;;;;;;20.20;95.20;100506.44;5105856;28;20084;-29
2023/09/08 05:06:57;;;;;;;12.10;8.50;;;;;;;20.30;94.88;100509.16;5105520;28;20028;-29
2023/09/08 05:09:23;;;;;;;15.23;9.35;;;;;;;20.36;94.78;100509.97;5105429;28;20027;-29
2023/09/08 05:12:06;;;;;;;10.48;8.20;;;;;;;20.46;93.73;100513.44;5105143;28;20023;-29
2023/09/08 05:14:32;;;;;;;12.60;8.40;;;;;;;20.73;92.98;100517.75;5106741;28;20034;-30
2023/09/08 05:16:57;;;;;;;11.98;8.85;;;;;;;20.78;92.79;100514.22;5109819;28;20067;-31
2023/09/08 05:19:23;;;;;;;12.35;9.10;;;;;;;20.67;93.23;100519.66;5109495;28;20413;-29
2023/09/08 05:21:54;;;;;;;12.98;8.25;;;;;;;20.67;94.10;100508.00;5109492;28;20055;-29
2023/09/08 05:24:20;;;;;;;12.82;9.73;;;;;;;20.80;92.91;100515.56;5109427;28;20106;-29
2023/09/08 05:27:13;;;;;;;12.55;9.55;;;;;;;21.11;91.75;100533.63;5109032;28;20034;-29
2023/09/08 05:29:39;;;;;;;13.07;9.63;;;;;;;20.96;92.95;100520.94;5108548;28;20080;-29
2023/09/08 05:32:04;;;;;;;17.92;9.98;;;;;;;21.08;92.46;100524.13;5108683;28;20454;-30
2023/09/08 05:34:30;;;;;;;13.00;9.50;;;;;;;21.06;92.75;100521.72;5109338;28;20561;-31
2023/09/08 05:37:27;;;;;;;15.70;9.98;;;;;;;21.23;93.16;100526.00;5108795;28;20485;-29
2023/09/08 05:39:53;;;;;;;16.13;10.07;;;;;;;21.14;92.41;100531.16;5074434;28;20092;-30
2023/09/08 05:42:21;;;;;;;13.95;10.15;;;;;;;21.15;93.27;100530.09;5109267;28;20031;-30
2023/09/08 05:44:47;;;;;;;;;;;;;;;21.31;92.89;100535.41;5109518;28;20028;-30
2023/09/08 05:47:22;;;;;;;14.23;9.45;;;;;;;21.42;92.28;100529.69;5109296;28;19908;-31
2023/09/08 05:49:47;;;;;;;19.38;13.55;;;;;;;21.70;89.99;100534.69;5108935;28;20027;-31
2023/09/08 05:52:13;;;;;;;15.48;9.65;;;;;;;21.76;90.06;100544.41;5108619;28;20101;-31
2023/09/08 05:55:04;;;;;;;16.48;9.20;;;;;;;21.89;89.08;100541.06;5108983;28;20034;-31
2023/09/08 05:58:01;;;;;;;14.00;9.18;;;;;;;22.07;88.37;100545.00;5105413;28;20039;-30
2023/09/08 06:00:29;;;;;;;10.80;8.13;;;;;;;22.12;86.87;100538.72;5108499;28;20023;-30
2023/09/08 06:02:54;;;;;;;11.43;8.70;;;;;;;22.01;87.96;100544.25;5108111;28;20023;-31
2023/09/08 06:05:35;;;;;;;11.75;8.48;;;;;;;22.15;87.08;100533.53;5108215;28;20046;-30
2023/09/08 06:08:26;;;;;;;14.77;8.90;;;;;;;22.21;87.24;100534.28;5108605;28;20110;-30
2023/09/08 06:11:24;;;;;;;21.13;13.13;;;;;;;22.44;86.58;100544.44;5105163;28;20058;-30
2023/09/08 06:13:49;;;;;;;;;;;;;;;22.70;83.70;100549.63;5026147;28;20580;-29
2023/09/08 06:16:23;;;;;;;15.20;9.67;;;;;;;22.82;81.48;100541.06;5108848;28;20011;-31
2023/09/08 06:18:49;;;;;;;13.75;8.23;;;;;;;22.76;81.60;100540.31;5108302;28;20280;-30
2023/09/08 06:21:26;;;;;;;14.98;9.90;;;;;;;23.03;78.64;100547.13;5108210;28;20545;-31
2023/09/08 06:23:52;;;;;;;;;;;;;;;23.18;79.19;100555.06;5108501;28;20023;-32
2023/09/08 06:26:29;;;;;;;9.05;6.60;;;;;;;23.31;74.91;100560.91;5107590;27;19915;-31
2023/09/08 06:28:55;;;;;;;13.00;6.50;;;;;;;23.34;73.74;100566.56;5108307;28;20051;-29
2023/09/08 06:31:38;;;;;;;10.93;6.82;;;;;;;23.43;73.68;100569.44;5108236;28;20118;-31
2023/09/08 06:34:36;;;;;;;9.00;6.55;;;;;;;23.47;72.54;100570.47;5108124;28;20023;-31
2023/09/08 06:37:38;;;;;;;10.48;6.30;;;;;;;23.52;70.04;100575.88;5094994;28;20039;-32
2023/09/08 06:40:34;;;;;;;12.05;6.63;;;;;;;23.73;70.09;100573.66;5106953;28;20440;-29
2023/09/08 06:43:00;;;;;;;8.63;4.63;;;;;;;23.94;63.64;100579.63;5106055;28;20028;-31
2023/09/08 06:45:34;;;;;;;8.73;5.43;;;;;;;24.02;63.81;100578.16;5107787;28;20042;-30
2023/09/08 06:48:00;;;;;;;9.02;5.18;;;;;;;23.94;62.03;100579.63;5107428;28;20024;-30
2023/09/08 06:50:37;;;;;;;9.23;4.60;;;;;;;24.11;60.25;100579.13;5107648;28;20031;-31
2023/09/08 06:53:02;;;;;;;7.03;3.88;;;;;;;24.21;61.49;100583.56;5108231;28;20031;-29
2023/09/08 06:55:37;;;;;;;10.00;5.30;;;;;;;24.24;62.09;100580.28;5107829;28;20031;-30
2023/09/08 06:58:02;;;;;;;8.55;4.22;;;;;;;24.47;58.74;100582.03;5108110;28;20039;-30
2023/09/08 07:00:40;;;;;;;9.25;5.00;;;;;;;24.67;58.85;100585.53;5107691;28;20074;-29
2023/09/08 07:03:07;;;;;;;8.80;4.35;;;;;;;24.84;55.74;100583.03;5107195;28;20049;-30
2023/09/08 07:05:42;;;;;;;10.15;4.80;;;;;;;24.98;55.60;100577.56;5107692;28;20032;-31
2023/09/08 07:08:13;;;;;;;7.75;3.90;;;;;;;24.92;52.78;100583.44;5107593;28;20020;-29
2023/09/08 07:10:54;;;;;;;7.15;3.40;;;;;;;24.96;51.81;100585.25;5107751;28;20031;-29
2023/09/08 07:13:19;;;;;;;6.40;3.70;;;;;;;25.04;50.88;100583.75;5107334;28;20567;-30
2023/09/08 07:16:02;;;;;;;10.63;3.88;;;;;;;25.19;52.17;100580.72;5107759;28;20039;-31
2023/09/08 07:18:54;;;;;;;7.05;4.03;;;;;;;25.49;51.34;100575.75;5107346;28;20060;-30
2023/09/08 07:21:19;;;;;;;5.50;3.25;;;;;;;25.56;48.53;100570.69;5104196;28;20047;-31
2023/09/08 07:23:56;;;;;;;6.22;3.10;;;;;;;26.03;49.90;100565.78;5107274;28;20031;-29
2023/09/08 07:26:21;;;;;;;8.80;4.38;;;;;;;25.79;48.51;100565.25;5107108;28;20035;-29
2023/09/08 07:28:56;;;;;;;5.57;3.40;;;;;;;25.88;47.99;100571.56;5107255;28;20036;-31
2023/09/08 07:31:21;;;;;;;6.95;3.80;;;;;;;26.23;46.25;100569.13;5107073;28;20027;-29
2023/09/08 07:34:07;;;;;;;6.50;3.20;;;;;;;26.19;45.48;100573.59;5107082;28;20084;-30
2023/09/08 07:36:33;;;;;;;6.30;3.50;;;;;;;26.31;43.96;100568.38;5106728;28;20038;-29
2023/09/08 07:39:00;;;;;;;7.82;3.55;;;;;;;26.41;44.57;100561.84;5106942;28;20031;-31
2023/09/08 07:41:26;;;;;;;6.53;3.35;;;;;;;26.50;44.00;100564.59;5106871;28;20076;-31
2023/09/08 07:44:17;;;;;;;9.50;3.40;;;;;;;26.61;45.75;100555.06;5106966;28;20027;-31
2023/09/08 07:46:44;;;;;;;6.32;3.40;;;;;;;26.76;45.15;100560.09;5105726;28;20032;-29
2023/09/08 07:49:09;;;;;;;7.85;3.28;;;;;;;26.95;43.65;100561.78;5106763;28;20492;-30
2023/09/08 07:51:35;;;;;;;6.18;3.25;;;;;;;26.59;42.66;100565.50;5104948;28;20042;-32
2023/09/08 07:54:03;;;;;;;6.03;3.10;;;;;;;26.49;41.93;100560.28;5106956;28;20481;-31
2023/09/08 07:56:28;;;;;;;6.72;3.60;;;;;;;26.68;42.65;100562.81;5106493;28;20080;-30
2023/09/08 07:58:54;;;;;;;5.53;3.08;;;;;;;26.83;42.09;100552.25;5107240;28;20023;-31
2023/09/08 08:02:02;;;;;;;5.68;3.33;;;;;;;27.09;41.11;100565.19;5106437;28;20031;-30
2023/09/08 08:04:50;;;;;;;6.50;3.70;;;;;;;27.02;41.40;100553.91;5107011;28;20106;-31
2023/09/08 08:07:16;;;;;;;5.72;3.35;;;;;;;27.48;41.74;100558.03;5102575;28;20789;-30
2023/09/08 08:09:54;;;;;;;6.30;3.50;;;;;;;27.71;40.46;100553.25;5106756;28;20104;-30
2023/09/08 08:12:19;;;;;;;6.57;3.10;;;;;;;27.77;40.49;100546.47;5106404;28;20023;-29
2023/09/08 08:14:53;;;;;;;11.10;3.72;;;;;;;27.91;40.88;100549.06;5106571;28;20046;-30
2023/09/08 08:17:19;;;;;;;10.60;3.90;;;;;;;27.81;40.06;100555.66;5106339;28;20028;-32
2023/09/08 08:20:06;;;;;;;8.50;4.50;;;;;;;27.83;39.79;100541.63;5106817;28;20416;-29
2023/09/08 08:22:33;;;;;;;8.95;4.75;;;;;;;27.95;38.61;100536.34;5106366;28;20035;-30
2023/09/08 08:24:58;;;;;;;6.75;3.78;;;;;;;28.56;38.94;100546.34;5106460;28;20032;-31
2023/09/08 08:27:23;;;;;;;6.28;3.78;;;;;;;28.23;38.56;100539.47;5105688;28;20102;-29
2023/09/08 08:30:11;;;;;;;8.93;3.90;;;;;;;28.56;38.12;100535.38;5106410;28;20461;-31
2023/09/08 08:32:36;;;;;;;;;;;;;;;28.73;37.87;100538.06;5106552;28;20080;-31
2023/09/08 08:35:10;;;;;;;10.20;3.67;;;;;;;28.73;37.35;100532.56;5105826;28;20312;-30
2023/09/08 08:37:35;;;;;;;7.40;3.38;;;;;;;28.65;38.10;100523.25;5106272;28;20088;-31
2023/09/08 08:40:11;;;;;;;8.40;3.42;;;;;;;28.60;38.65;100530.84;5106261;28;20416;-30
2023/09/08 08:42:36;;;;;;;5.72;3.55;;;;;;;28.63;37.29;100527.47;5106235;28;20024;-32
2023/09/08 08:45:23;;;;;;;10.55;3.67;;;;;;;28.62;37.28;100528.56;5105640;28;20028;-32
2023/09/08 08:48:20;;;;;;;6.50;3.60;;;;;;;28.32;37.88;100528.50;5106097;28;20031;-30
2023/09/08 08:51:16;;;;;;;;;;;;;;;27.95;37.91;100522.63;5085515;28;20098;-32
2023/09/08 08:53:42;;;;;;;6.95;3.47;;;;;;;28.18;39.17;100527.91;5105928;28;19915;-29
2023/09/08 08:56:26;;;;;;;6.40;3.00;;;;;;;28.40;38.48;100527.69;5106044;28;20747;-32
2023/09/08 08:59:18;;;;;;;7.57;3.30;;;;;;;28.52;37.22;100520.72;5105902;28;20019;-31
2023/09/08 09:01:43;;;;;;;6.32;3.83;;;;;;;28.74;36.86;100520.44;5104787;28;20044;-30
2023/09/08 09:04:10;;;;;;;6.28;3.47;;;;;;;28.63;36.46;100520.03;5105588;28;20088;-29
2023/09/08 09:06:39;;;;;;;9.70;3.27;;;;;;;28.03;36.77;100513.59;5106017;28;20099;-30
2023/09/08 09:09:05;;;;;;;9.95;3.60;;;;;;;28.30;37.05;100514.31;5105577;28;20028;-31
2023/09/08 09:11:42;;;;;;;8.30;3.30;;;;;;;28.76;35.29;100511.91;5105560;28;20108;-30
2023/09/08 09:14:08;;;;;;;11.48;3.35;;;;;;;28.13;36.10;100517.09;5105490;28;20052;-30
2023/09/08 09:16:44;;;;;;;4.68;2.80;;;;;;;28.37;35.00;100506.38;5105538;28;20054;-30
2023/09/08 09:19:45;;;;;;;9.18;3.45;;;;;;;28.52;35.75;100504.25;5105393;28;20085;-30
2023/09/08 09:22:03;;;;;;;5.32;3.33;;;;;;;28.67;35.68;100514.69;5102686;28;20105;-29
2023/09/08 09:24:56;;;;;;;6.55;3.22;;;;;;;28.64;35.68;100524.38;5105610;28;20028;-31
2023/09/08 09:27:22;;;;;;;6.63;3.75;;;;;;;28.20;36.53;100515.47;5105356;28;20111;-33
2023/09/08 09:29:49;;;;;;;8.52;3.15;;;;;;;28.43;35.21;100521.53;5105249;28;20107;-30
2023/09/08 09:32:49;;;;;;;5.88;3.58;;;;;;;28.87;35.26;100523.28;5105842;28;20063;-30
2023/09/08 09:35:42;;;;;;;6.38;3.35;;;;;;;29.23;34.58;100509.84;5082327;28;20032;-29
2023/09/08 09:38:21;;;;;;;8.05;3.33;;;;;;;29.38;34.44;100516.69;5089884;28;20051;-30
2023/09/08 09:40:47;;;;;;;5.32;3.20;;;;;;;29.42;34.75;100497.59;5105193;28;20031;-30
2023/09/08 09:43:14;;;;;;;4.85;3.20;;;;;;;29.53;34.76;100506.25;5105705;28;20024;-31
2023/09/08 09:45:41;;;;;;;7.68;3.53;;;;;;;29.81;34.43;100500.97;5105347;28;20066;-34
2023/09/08 09:48:18;;;;;;;6.00;3.53;;;;;;;29.36;34.34;100502.50;5105372;28;20028;-31
2023/09/08 09:50:44;;;;;;;;;;;;;;;28.83;34.00;100491.03;5105645;28;20150;-31
2023/09/08 09:53:14;;;;;;;6.70;3.20;;;;;;;29.16;34.14;100492.31;5105041;28;20076;-30
2023/09/08 09:55:42;;;;;;;6.95;3.00;;;;;;;29.52;34.44;100482.63;5105233;28;20119;-30
2023/09/08 09:58:18;;;;;;;;;;;;;;;29.58;33.05;100476.59;5105620;28;20481;-30
2023/09/08 10:00:57;;;;;;;;;;;;;;;;;;;;;
2023/09/08 10:03:26;;;;;;;6.03;3.25;;;;;;;29.96;33.44;100472.06;5100305;28;20419;-32
2023/09/08 10:06:31;;;;;;;6.38;3.58;;;;;;;30.19;33.18;100461.44;5108794;28;20047;-32
2023/09/08 10:09:23;;;;;;;5.70;3.10;;;;;;;30.48;31.89;100456.91;5108250;28;20048;-30
2023/09/08 10:12:25;;;;;;;7.07;3.00;;;;;;;30.49;31.84;100458.53;5103512;28;20192;-32
2023/09/08 10:14:55;;;;;;;9.43;3.30;;;;;;;30.57;31.17;100454.84;5108886;28;20814;-32
2023/09/08 10:17:30;;;;;;;23.52;5.57;;;;;;;30.60;29.63;100456.91;5108681;27;20027;-32
2023/09/08 10:20:00;;;;;;;12.00;3.00;;;;;;;30.46;30.17;100460.00;5108373;28;20034;-30
2023/09/08 10:22:31;;;;;;;14.40;3.42;;;;;;;30.67;31.21;100446.13;5108530;27;20028;-29
2023/09/08 10:25:31;;;;;;;6.85;2.70;;;;;;;30.88;30.33;100453.47;5108347;28;20027;-30
2023/09/08 10:28:31;;;;;;;4.55;2.80;;;;;;;31.04;29.49;100452.38;5108371;28;20043;-30
2023/09/08 10:30:50;;;;;;;4.97;3.15;;;;;;;31.06;29.26;100448.47;5107430;28;20384;-30
2023/09/08 10:33:32;;;;;;;6.25;2.83;;;;;;;31.28;29.53;100445.19;5108534;28;20023;-30
2023/09/08 10:39:39;;;;;;;7.95;3.15;;;;;;;31.03;29.48;100434.25;5107001;28;20035;-33
2023/09/08 10:42:19;;;;;;;8.48;3.42;;;;;;;31.29;28.54;100422.00;5107312;28;20100;-34
2023/09/08 10:44:47;;;;;;;6.60;3.00;;;;;;;31.00;27.65;100423.16;5108036;27;20465;-32
2023/09/08 10:47:53;;;;;;;6.07;3.45;;;;;;;31.34;28.16;100416.22;5108003;28;20440;-32
2023/09/08 10:50:41;;;;;;;6.40;3.38;;;;;;;31.60;28.62;100417.75;5084729;28;20024;-32
2023/09/08 10:53:49;;;;;;;13.18;9.85;;;;;;;32.01;28.64;100422.00;5084634;28;20081;-32
2023/09/08 10:56:52;;;;;;;6.07;3.75;;;;;;;32.16;27.90;100422.34;5060759;28;20051;-32
2023/09/08 10:59:38;;;;;;;8.70;5.95;;;;;;;32.70;27.16;100410.66;5064574;28;20575;-34
2023/09/08 11:02:04;;;;;;;6.13;3.40;;;;;;;31.83;26.87;100413.25;5102342;28;20035;-32
2023/09/08 11:04:42;;;;;;;7.53;2.80;;;;;;;32.12;27.13;100393.88;5108105;28;20393;-32
2023/09/08 11:07:17;;;;;;;;;;;;;;;;;;;;;
2023/09/08 11:09:46;;;;;;;6.82;2.88;;;;;;;31.80;27.91;100399.38;5103343;28;20088;-34
2023/09/08 11:12:11;;;;;;;5.95;3.13;;;;;;;31.81;27.50;100395.44;5107087;27;20038;-32
2023/09/08 11:14:37;;;;;;;7.47;2.90;;;;;;;31.99;28.03;100396.72;5107590;28;20027;-32
2023/09/08 11:17:03;;;;;;;6.82;3.38;;;;;;;32.05;26.80;100396.47;5107416;28;20028;-32
2023/09/08 11:19:46;;;;;;;8.95;3.25;;;;;;;31.95;27.06;100393.06;5107406;28;20389;-33
2023/09/08 11:22:11;;;;;;;5.38;3.10;;;;;;;31.99;27.71;100380.19;5107173;28;20046;-32
2023/09/08 11:24:37;;;;;;;6.80;3.00;;;;;;;32.37;30.32;100378.72;5107733;28;20432;-35
2023/09/08 11:27:02;;;;;;;8.23;3.33;;;;;;;32.69;27.43;100389.69;5107072;28;20123;-34
2023/09/08 11:29:48;;;;;;;5.15;2.78;;;;;;;32.21;29.14;100375.19;5107497;28;20031;-34
2023/09/08 11:32:13;;;;;;;7.32;4.05;;;;;;;31.24;29.80;100383.66;5106913;28;20036;-34
2023/09/08 11:34:52;;;;;;;6.43;3.10;;;;;;;30.66;30.08;100370.19;5107548;28;20028;-30
2023/09/08 11:37:18;;;;;;;5.90;3.35;;;;;;;30.93;30.70;100367.84;5107388;28;20039;-32
2023/09/08 11:39:52;;;;;;;5.82;3.05;;;;;;;31.73;29.95;100363.34;5107413;28;20027;-30
2023/09/08 11:42:18;;;;;;;7.57;3.30;;;;;;;31.83;28.56;100376.59;5107202;28;20398;-30
2023/09/08 11:44:43;;;;;;;6.43;3.42;;;;;;;31.92;28.85;100363.44;5107017;28;20515;-32
2023/09/08 11:47:10;;;;;;;6.53;3.50;;;;;;;31.54;29.80;100353.81;5107057;27;20419;-30
2023/09/08 11:50:11;;;;;;;7.07;3.08;;;;;;;30.65;28.81;100365.84;5107344;28;20068;-30
2023/09/08 11:52:59;;;;;;;6.53;3.80;;;;;;;30.93;29.57;100362.34;5083557;28;20070;-31
2023/09/08 11:55:25;;;;;;;7.28;3.33;;;;;;;31.66;28.29;100357.66;5083626;28;20031;-32
2023/09/08 11:58:01;;;;;;;5.50;3.20;;;;;;;31.66;28.12;100357.66;5083951;28;20086;-29
2023/09/08 12:00:27;;;;;;;6.05;3.33;;;;;;;32.34;28.06;100351.81;5083386;28;20032;-33